sensor_id;sensor_type;location;lat;lon;timestamp;pressure;altitude;pressure_sealevel;temperature;humidity
72038;BME280;59900;50.788;12.904;2023-08-12T00:00:12;97908.09;;;20.80;62.16
72038;BME280;59900;50.788;12.904;2023-08-12T00:02:41;97916.66;;;20.82;62.13
72038;BME280;59900;50.788;12.904;2023-08-12T00:05:07;97917.22;;;20.84;62.20
72038;BME280;59900;50.788;12.904;2023-08-12T00:07:33;97921.50;;;20.85;62.22
72038;BME280;59900;50.788;12.904;2023-08-12T00:10:03;97919.34;;;20.82;62.05
72038;BME280;59900;50.788;12.904;2023-08-12T00:12:32;97919.66;;;20.86;62.43
72038;BME280;59900;50.788;12.904;2023-08-12T00:14:58;97923.38;;;20.85;62.18
72038;BME280;59900;50.788;12.904;2023-08-12T00:17:23;97917.47;;;20.83;62.27
72038;BME280;59900;50.788;12.904;2023-08-12T00:19:48;97918.78;;;20.80;62.23
72038;BME280;59900;50.788;12.904;2023-08-12T00:22:13;97910.22;;;20.78;62.26
72038;BME280;59900;50.788;12.904;2023-08-12T00:24:39;97913.94;;;20.77;62.31
72038;BME280;59900;50.788;12.904;2023-08-12T00:27:05;97915.06;;;20.81;62.16
72038;BME280;59900;50.788;12.904;2023-08-12T00:29:34;97918.03;;;20.85;62.52
72038;BME280;59900;50.788;12.904;2023-08-12T00:32:00;97920.69;;;20.85;62.76
72038;BME280;59900;50.788;12.904;2023-08-12T00:34:27;97920.97;;;20.83;62.86
72038;BME280;59900;50.788;12.904;2023-08-12T00:36:52;97915.31;;;20.80;63.20
72038;BME280;59900;50.788;12.904;2023-08-12T00:39:17;97920.59;;;20.75;63.68
72038;BME280;59900;50.788;12.904;2023-08-12T00:41:43;97921.09;;;20.72;64.36
72038;BME280;59900;50.788;12.904;2023-08-12T00:44:08;97918.09;;;20.63;64.79
72038;BME280;59900;50.788;12.904;2023-08-12T00:46:34;97921.47;;;20.58;64.93
72038;BME280;59900;50.788;12.904;2023-08-12T00:49:00;97916.34;;;20.52;65.23
72038;BME280;59900;50.788;12.904;2023-08-12T00:51:25;97918.94;;;20.47;65.25
72038;BME280;59900;50.788;12.904;2023-08-12T00:53:51;97915.09;;;20.38;65.75
72038;BME280;59900;50.788;12.904;2023-08-12T00:56:18;97917.22;;;20.36;65.15
72038;BME280;59900;50.788;12.904;2023-08-12T00:58:43;97912.06;;;20.29;65.62
72038;BME280;59900;50.788;12.904;2023-08-12T01:01:10;97907.00;;;20.28;65.78
72038;BME280;59900;50.788;12.904;2023-08-12T01:03:36;97914.09;;;20.22;66.72
72038;BME280;59900;50.788;12.904;2023-08-12T01:06:02;97916.69;;;20.17;66.56
72038;BME280;59900;50.788;12.904;2023-08-12T01:08:30;97911.06;;;20.13;67.49
72038;BME280;59900;50.788;12.904;2023-08-12T01:11:18;97910.16;;;20.08;67.38
72038;BME280;59900;50.788;12.904;2023-08-12T01:13:52;97898.69;;;20.07;67.30
72038;BME280;59900;50.788;12.904;2023-08-12T01:16:22;97895.22;;;20.07;67.97
72038;BME280;59900;50.788;12.904;2023-08-12T01:18:49;97898.13;;;20.05;67.20
72038;BME280;59900;50.788;12.904;2023-08-12T01:21:16;97894.97;;;20.08;67.97
72038;BME280;59900;50.788;12.904;2023-08-12T01:23:43;97893.84;;;20.04;68.35
72038;BME280;59900;50.788;12.904;2023-08-12T01:26:08;97896.22;;;20.01;67.65
72038;BME280;59900;50.788;12.904;2023-08-12T01:28:33;97885.22;;;19.97;68.55
72038;BME280;59900;50.788;12.904;2023-08-12T01:31:07;97885.97;;;19.93;68.27
72038;BME280;59900;50.788;12.904;2023-08-12T01:34:11;97882.50;;;19.92;69.36
72038;BME280;59900;50.788;12.904;2023-08-12T01:36:40;97879.72;;;19.87;69.18
72038;BME280;59900;50.788;12.904;2023-08-12T01:39:09;97877.81;;;19.83;69.37
72038;BME280;59900;50.788;12.904;2023-08-12T01:41:36;97870.81;;;19.77;69.34
72038;BME280;59900;50.788;12.904;2023-08-12T01:44:03;97867.31;;;19.76;69.13
72038;BME280;59900;50.788;12.904;2023-08-12T01:46:30;97871.28;;;19.74;69.95
72038;BME280;59900;50.788;12.904;2023-08-12T01:48:56;97868.56;;;19.69;70.16
72038;BME280;59900;50.788;12.904;2023-08-12T01:51:21;97858.94;;;19.68;69.89
72038;BME280;59900;50.788;12.904;2023-08-12T01:53:46;97870.91;;;19.65;70.13
72038;BME280;59900;50.788;12.904;2023-08-12T01:56:14;97869.78;;;19.61;70.30
72038;BME280;59900;50.788;12.904;2023-08-12T01:58:39;97859.59;;;19.58;70.34
72038;BME280;59900;50.788;12.904;2023-08-12T02:01:04;97853.72;;;19.56;70.49
72038;BME280;59900;50.788;12.904;2023-08-12T02:03:30;97858.50;;;19.54;70.94
72038;BME280;59900;50.788;12.904;2023-08-12T02:05:55;97839.84;;;19.54;71.00
72038;BME280;59900;50.788;12.904;2023-08-12T02:08:20;97850.72;;;19.52;71.85
72038;BME280;59900;50.788;12.904;2023-08-12T02:10:45;97849.63;;;19.48;71.42
72038;BME280;59900;50.788;12.904;2023-08-12T02:13:11;97849.03;;;19.46;71.64
72038;BME280;59900;50.788;12.904;2023-08-12T02:15:37;97842.81;;;19.41;71.71
72038;BME280;59900;50.788;12.904;2023-08-12T02:18:02;97849.22;;;19.40;71.75
72038;BME280;59900;50.788;12.904;2023-08-12T02:20:29;97844.09;;;19.38;72.40
72038;BME280;59900;50.788;12.904;2023-08-12T02:22:55;97837.41;;;19.36;72.83
72038;BME280;59900;50.788;12.904;2023-08-12T02:25:20;97837.88;;;19.33;72.72
72038;BME280;59900;50.788;12.904;2023-08-12T02:27:45;97833.03;;;19.30;72.77
72038;BME280;59900;50.788;12.904;2023-08-12T02:30:11;97824.72;;;19.26;72.99
72038;BME280;59900;50.788;12.904;2023-08-12T02:32:36;97826.56;;;19.26;73.21
72038;BME280;59900;50.788;12.904;2023-08-12T02:35:01;97820.22;;;19.27;73.16
72038;BME280;59900;50.788;12.904;2023-08-12T02:37:27;97822.31;;;19.25;72.29
72038;BME280;59900;50.788;12.904;2023-08-12T02:39:52;97812.69;;;19.24;72.80
72038;BME280;59900;50.788;12.904;2023-08-12T02:42:17;97812.97;;;19.22;73.45
72038;BME280;59900;50.788;12.904;2023-08-12T02:44:42;97809.72;;;19.20;73.31
72038;BME280;59900;50.788;12.904;2023-08-12T02:47:07;97819.31;;;19.21;73.73
72038;BME280;59900;50.788;12.904;2023-08-12T02:49:33;97813.19;;;19.21;73.51
72038;BME280;59900;50.788;12.904;2023-08-12T02:51:58;97811.28;;;19.16;73.62
72038;BME280;59900;50.788;12.904;2023-08-12T02:54:23;97808.28;;;19.13;73.66
72038;BME280;59900;50.788;12.904;2023-08-12T02:56:51;97817.56;;;19.10;73.03
72038;BME280;59900;50.788;12.904;2023-08-12T02:59:16;97815.63;;;19.06;73.16
72038;BME280;59900;50.788;12.904;2023-08-12T03:01:42;97806.03;;;19.05;73.37
72038;BME280;59900;50.788;12.904;2023-08-12T03:04:07;97805.44;;;19.02;73.49
72038;BME280;59900;50.788;12.904;2023-08-12T03:06:32;97792.63;;;18.99;74.12
72038;BME280;59900;50.788;12.904;2023-08-12T03:08:58;97802.38;;;18.94;74.79
72038;BME280;59900;50.788;12.904;2023-08-12T03:11:23;97788.75;;;18.90;75.24
72038;BME280;59900;50.788;12.904;2023-08-12T03:13:48;97796.81;;;18.95;74.85
72038;BME280;59900;50.788;12.904;2023-08-12T03:16:14;97787.22;;;18.94;74.65
72038;BME280;59900;50.788;12.904;2023-08-12T03:18:40;97798.41;;;18.96;74.63
72038;BME280;59900;50.788;12.904;2023-08-12T03:21:09;97797.38;;;18.97;74.68
72038;BME280;59900;50.788;12.904;2023-08-12T03:23:35;97805.63;;;18.96;74.88
72038;BME280;59900;50.788;12.904;2023-08-12T03:26:02;97805.31;;;18.92;74.73
72038;BME280;59900;50.788;12.904;2023-08-12T03:28:27;97798.03;;;18.88;74.62
72038;BME280;59900;50.788;12.904;2023-08-12T03:30:53;97803.59;;;18.86;75.26
72038;BME280;59900;50.788;12.904;2023-08-12T03:33:18;97807.88;;;18.87;75.00
72038;BME280;59900;50.788;12.904;2023-08-12T03:35:48;97799.56;;;18.84;75.02
72038;BME280;59900;50.788;12.904;2023-08-12T03:38:13;97800.38;;;18.84;75.21
72038;BME280;59900;50.788;12.904;2023-08-12T03:40:39;97801.16;;;18.85;74.76
72038;BME280;59900;50.788;12.904;2023-08-12T03:43:05;97801.97;;;18.85;75.06
72038;BME280;59900;50.788;12.904;2023-08-12T03:45:30;97802.22;;;18.84;75.19
72038;BME280;59900;50.788;12.904;2023-08-12T03:47:57;97795.78;;;18.80;74.89
72038;BME280;59900;50.788;12.904;2023-08-12T03:50:22;97791.75;;;18.77;75.67
72038;BME280;59900;50.788;12.904;2023-08-12T03:52:48;97801.72;;;18.70;75.67
72038;BME280;59900;50.788;12.904;2023-08-12T03:55:13;97795.50;;;18.65;76.09
72038;BME280;59900;50.788;12.904;2023-08-12T03:57:38;97797.94;;;18.66;75.59
72038;BME280;59900;50.788;12.904;2023-08-12T04:00:04;97794.69;;;18.64;75.72
72038;BME280;59900;50.788;12.904;2023-08-12T04:02:32;97794.69;;;18.64;76.41
72038;BME280;59900;50.788;12.904;2023-08-12T04:04:57;97789.38;;;18.64;76.06
72038;BME280;59900;50.788;12.904;2023-08-12T04:07:22;97790.66;;;18.62;76.50
72038;BME280;59900;50.788;12.904;2023-08-12T04:09:47;97785.34;;;18.62;76.34
72038;BME280;59900;50.788;12.904;2023-08-12T04:12:13;97792.50;;;18.61;76.75
72038;BME280;59900;50.788;12.904;2023-08-12T04:14:38;97790.44;;;18.63;76.18
72038;BME280;59900;50.788;12.904;2023-08-12T04:17:05;97789.63;;;18.63;76.68
72038;BME280;59900;50.788;12.904;2023-08-12T04:19:31;97788.13;;;18.67;76.70
72038;BME280;59900;50.788;12.904;2023-08-12T04:21:56;97789.47;;;18.69;76.21
72038;BME280;59900;50.788;12.904;2023-08-12T04:24:21;97790.84;;;18.72;76.63
72038;BME280;59900;50.788;12.904;2023-08-12T04:26:46;97790.38;;;18.75;76.38
72038;BME280;59900;50.788;12.904;2023-08-12T04:29:12;97784.78;;;18.76;76.33
72038;BME280;59900;50.788;12.904;2023-08-12T04:31:37;97785.13;;;18.80;76.19
72038;BME280;59900;50.788;12.904;2023-08-12T04:34:02;97782.53;;;18.85;76.05
72038;BME280;59900;50.788;12.904;2023-08-12T04:36:29;97776.16;;;18.86;76.57
72038;BME280;59900;50.788;12.904;2023-08-12T04:38:54;97774.06;;;18.88;76.71
72038;BME280;59900;50.788;12.904;2023-08-12T04:41:19;97778.09;;;18.90;75.73
72038;BME280;59900;50.788;12.904;2023-08-12T04:43:45;97780.59;;;18.97;76.40
72038;BME280;59900;50.788;12.904;2023-08-12T04:46:10;97783.59;;;19.00;76.58
72038;BME280;59900;50.788;12.904;2023-08-12T04:48:35;97778.59;;;19.04;76.60
72038;BME280;59900;50.788;12.904;2023-08-12T04:51:00;97766.38;;;19.08;75.97
72038;BME280;59900;50.788;12.904;2023-08-12T04:53:28;97775.81;;;19.16;76.40
72038;BME280;59900;50.788;12.904;2023-08-12T04:55:55;97771.38;;;19.21;75.97
72038;BME280;59900;50.788;12.904;2023-08-12T04:58:21;97777.34;;;19.28;76.51
72038;BME280;59900;50.788;12.904;2023-08-12T05:00:46;97775.56;;;19.34;76.69
72038;BME280;59900;50.788;12.904;2023-08-12T05:03:11;97775.66;;;19.39;76.18
72038;BME280;59900;50.788;12.904;2023-08-12T05:05:36;97775.72;;;19.44;76.75
72038;BME280;59900;50.788;12.904;2023-08-12T05:08:02;97776.84;;;19.48;77.46
72038;BME280;59900;50.788;12.904;2023-08-12T05:10:27;97773.69;;;19.51;77.33
72038;BME280;59900;50.788;12.904;2023-08-12T05:12:52;97776.66;;;19.54;77.76
72038;BME280;59900;50.788;12.904;2023-08-12T05:15:19;97778.03;;;19.57;77.77
72038;BME280;59900;50.788;12.904;2023-08-12T05:17:44;97773.00;;;19.61;78.45
72038;BME280;59900;50.788;12.904;2023-08-12T05:20:10;97770.09;;;19.62;78.28
72038;BME280;59900;50.788;12.904;2023-08-12T05:22:35;97766.94;;;19.65;78.28
72038;BME280;59900;50.788;12.904;2023-08-12T05:25:01;97771.75;;;19.68;78.50
72038;BME280;59900;50.788;12.904;2023-08-12T05:27:26;97767.56;;;19.72;78.12
72038;BME280;59900;50.788;12.904;2023-08-12T05:29:51;97763.59;;;19.75;78.13
72038;BME280;59900;50.788;12.904;2023-08-12T05:32:17;97765.50;;;19.79;78.06
72038;BME280;59900;50.788;12.904;2023-08-12T05:34:42;97764.19;;;19.82;77.47
72038;BME280;59900;50.788;12.904;2023-08-12T05:37:07;97762.91;;;19.84;77.21
72038;BME280;59900;50.788;12.904;2023-08-12T05:39:33;97762.63;;;19.86;77.35
72038;BME280;59900;50.788;12.904;2023-08-12T05:41:58;97762.97;;;19.89;77.08
72038;BME280;59900;50.788;12.904;2023-08-12T05:44:23;97765.66;;;19.94;75.97
72038;BME280;59900;50.788;12.904;2023-08-12T05:46:48;97765.78;;;20.04;76.75
72038;BME280;59900;50.788;12.904;2023-08-12T05:49:14;97764.78;;;20.10;74.55
72038;BME280;59900;50.788;12.904;2023-08-12T05:51:39;97766.50;;;20.22;74.84
72038;BME280;59900;50.788;12.904;2023-08-12T05:54:04;97761.84;;;20.34;74.64
72038;BME280;59900;50.788;12.904;2023-08-12T05:56:30;97760.88;;;20.45;74.91
72038;BME280;59900;50.788;12.904;2023-08-12T05:58:55;97759.38;;;20.54;73.35
72038;BME280;59900;50.788;12.904;2023-08-12T06:01:20;97761.88;;;20.65;72.94
72038;BME280;59900;50.788;12.904;2023-08-12T06:03:46;97762.25;;;20.79;71.70
72038;BME280;59900;50.788;12.904;2023-08-12T06:06:11;97763.91;;;20.90;73.12
72038;BME280;59900;50.788;12.904;2023-08-12T06:08:36;97758.66;;;21.00;72.48
72038;BME280;59900;50.788;12.904;2023-08-12T06:11:01;97758.25;;;21.13;74.08
72038;BME280;59900;50.788;12.904;2023-08-12T06:13:27;97766.88;;;21.26;73.83
72038;BME280;59900;50.788;12.904;2023-08-12T06:15:52;97760.78;;;21.35;73.89
72038;BME280;59900;50.788;12.904;2023-08-12T06:18:17;97758.19;;;21.50;73.90
72038;BME280;59900;50.788;12.904;2023-08-12T06:20:43;97756.94;;;21.63;73.61
72038;BME280;59900;50.788;12.904;2023-08-12T06:23:08;97759.38;;;21.74;72.52
72038;BME280;59900;50.788;12.904;2023-08-12T06:25:33;97751.13;;;21.86;71.74
72038;BME280;59900;50.788;12.904;2023-08-12T06:28:01;97754.13;;;21.95;71.47
72038;BME280;59900;50.788;12.904;2023-08-12T06:30:26;97750.66;;;21.99;69.31
72038;BME280;59900;50.788;12.904;2023-08-12T06:32:51;97746.13;;;22.05;69.97
72038;BME280;59900;50.788;12.904;2023-08-12T06:35:17;97757.66;;;22.10;69.93
72038;BME280;59900;50.788;12.904;2023-08-12T06:37:42;97749.34;;;22.12;67.87
72038;BME280;59900;50.788;12.904;2023-08-12T06:40:08;97755.53;;;22.17;68.72
72038;BME280;59900;50.788;12.904;2023-08-12T06:42:33;97756.34;;;22.18;68.58
72038;BME280;59900;50.788;12.904;2023-08-12T06:44:59;97757.13;;;22.23;69.13
72038;BME280;59900;50.788;12.904;2023-08-12T06:47:25;97749.91;;;22.24;68.54
72038;BME280;59900;50.788;12.904;2023-08-12T06:49:52;97744.28;;;22.25;66.78
72038;BME280;59900;50.788;12.904;2023-08-12T06:52:17;97738.69;;;22.32;67.12
72038;BME280;59900;50.788;12.904;2023-08-12T06:54:43;97748.84;;;22.35;67.43
72038;BME280;59900;50.788;12.904;2023-08-12T06:57:08;97746.75;;;22.42;69.06
72038;BME280;59900;50.788;12.904;2023-08-12T06:59:33;97745.41;;;22.50;68.96
72038;BME280;59900;50.788;12.904;2023-08-12T07:01:58;97738.97;;;22.56;68.94
72038;BME280;59900;50.788;12.904;2023-08-12T07:04:24;97744.06;;;22.62;67.94
72038;BME280;59900;50.788;12.904;2023-08-12T07:06:49;97739.81;;;22.71;68.51
72038;BME280;59900;50.788;12.904;2023-08-12T07:09:14;97734.72;;;22.70;68.39
72038;BME280;59900;50.788;12.904;2023-08-12T07:11:40;97736.84;;;22.73;68.63
72038;BME280;59900;50.788;12.904;2023-08-12T07:14:05;97732.56;;;22.67;66.89
72038;BME280;59900;50.788;12.904;2023-08-12T07:16:30;97737.91;;;22.62;65.47
72038;BME280;59900;50.788;12.904;2023-08-12T07:18:56;97737.91;;;22.57;65.42
72038;BME280;59900;50.788;12.904;2023-08-12T07:21:21;97732.56;;;22.57;68.02
72038;BME280;59900;50.788;12.904;2023-08-12T07:23:46;97737.38;;;22.60;68.75
72038;BME280;59900;50.788;12.904;2023-08-12T07:26:11;97735.22;;;22.62;67.99
72038;BME280;59900;50.788;12.904;2023-08-12T07:28:37;97736.03;;;22.62;66.36
72038;BME280;59900;50.788;12.904;2023-08-12T07:31:02;97734.72;;;22.65;68.39
72038;BME280;59900;50.788;12.904;2023-08-12T07:33:27;97733.91;;;22.69;69.01
72038;BME280;59900;50.788;12.904;2023-08-12T07:35:53;97732.31;;;22.73;67.93
72038;BME280;59900;50.788;12.904;2023-08-12T07:38:18;97736.59;;;22.79;67.45
72038;BME280;59900;50.788;12.904;2023-08-12T07:40:43;97729.34;;;22.85;68.16
72038;BME280;59900;50.788;12.904;2023-08-12T07:43:09;97727.19;;;22.97;68.16
72038;BME280;59900;50.788;12.904;2023-08-12T07:45:34;97726.13;;;23.03;67.41
72038;BME280;59900;50.788;12.904;2023-08-12T07:47:59;97721.00;;;23.12;66.52
72038;BME280;59900;50.788;12.904;2023-08-12T07:50:24;97726.91;;;23.19;65.89
72038;BME280;59900;50.788;12.904;2023-08-12T07:52:50;97718.56;;;23.20;65.68
72038;BME280;59900;50.788;12.904;2023-08-12T07:55:16;97720.16;;;23.26;64.59
72038;BME280;59900;50.788;12.904;2023-08-12T08:00:07;97718.56;;;23.30;63.64
72038;BME280;59900;50.788;12.904;2023-08-12T08:02:33;97720.13;;;23.31;64.92
72038;BME280;59900;50.788;12.904;2023-08-12T08:04:58;97723.63;;;23.32;66.08
72038;BME280;59900;50.788;12.904;2023-08-12T08:07:26;97719.88;;;23.33;64.43
72038;BME280;59900;50.788;12.904;2023-08-12T08:09:51;97728.69;;;23.54;64.03
72038;BME280;59900;50.788;12.904;2023-08-12T08:12:17;97727.00;;;23.73;62.91
72038;BME280;59900;50.788;12.904;2023-08-12T08:14:42;97715.41;;;23.82;62.19
72038;BME280;59900;50.788;12.904;2023-08-12T08:17:07;97714.78;;;23.95;62.58
72038;BME280;59900;50.788;12.904;2023-08-12T08:19:33;97714.47;;;24.12;61.56
72038;BME280;59900;50.788;12.904;2023-08-12T08:21:58;97713.31;;;24.23;63.47
72038;BME280;59900;50.788;12.904;2023-08-12T08:24:23;97709.00;;;24.27;63.83
72038;BME280;59900;50.788;12.904;2023-08-12T08:26:48;97709.00;;;24.27;63.73
72038;BME280;59900;50.788;12.904;2023-08-12T08:29:14;97706.19;;;24.47;61.39
72038;BME280;59900;50.788;12.904;2023-08-12T08:31:39;97703.72;;;24.51;60.73
72038;BME280;59900;50.788;12.904;2023-08-12T08:34:05;97705.88;;;24.54;62.41
72038;BME280;59900;50.788;12.904;2023-08-12T08:36:31;97706.63;;;24.54;62.61
72038;BME280;59900;50.788;12.904;2023-08-12T08:38:56;97701.31;;;24.49;64.39
72038;BME280;59900;50.788;12.904;2023-08-12T08:41:21;97700.25;;;24.50;63.05
72038;BME280;59900;50.788;12.904;2023-08-12T08:43:48;97702.72;;;24.42;62.39
72038;BME280;59900;50.788;12.904;2023-08-12T08:46:15;97696.56;;;24.41;56.40
72038;BME280;59900;50.788;12.904;2023-08-12T08:48:42;97703.50;;;24.42;58.17
72038;BME280;59900;50.788;12.904;2023-08-12T08:51:08;97702.47;;;24.38;56.73
72038;BME280;59900;50.788;12.904;2023-08-12T08:53:37;97711.06;;;24.40;58.89
72038;BME280;59900;50.788;12.904;2023-08-12T08:56:07;97706.25;;;24.37;60.07
72038;BME280;59900;50.788;12.904;2023-08-12T08:58:33;97716.72;;;24.39;59.76
72038;BME280;59900;50.788;12.904;2023-08-12T09:00:59;97724.22;;;24.42;59.40
72038;BME280;59900;50.788;12.904;2023-08-12T09:03:25;97712.31;;;24.53;58.28
72038;BME280;59900;50.788;12.904;2023-08-12T09:05:51;97711.69;;;24.61;58.89
72038;BME280;59900;50.788;12.904;2023-08-12T09:08:17;97716.81;;;24.63;59.45
72038;BME280;59900;50.788;12.904;2023-08-12T09:10:43;97716.25;;;24.66;58.21
72038;BME280;59900;50.788;12.904;2023-08-12T09:13:09;97718.59;;;24.72;57.07
72038;BME280;59900;50.788;12.904;2023-08-12T09:15:35;97707.81;;;24.77;56.40
72038;BME280;59900;50.788;12.904;2023-08-12T09:18:00;97710.72;;;24.86;56.94
72038;BME280;59900;50.788;12.904;2023-08-12T09:20:26;97710.91;;;24.94;55.08
72038;BME280;59900;50.788;12.904;2023-08-12T09:22:56;97702.50;;;25.01;57.21
72038;BME280;59900;50.788;12.904;2023-08-12T09:25:22;97706.22;;;25.05;57.56
72038;BME280;59900;50.788;12.904;2023-08-12T09:27:48;97699.69;;;25.11;56.57
72038;BME280;59900;50.788;12.904;2023-08-12T09:30:14;97693.47;;;25.16;59.53
72038;BME280;59900;50.788;12.904;2023-08-12T09:32:39;97692.69;;;25.15;59.05
72038;BME280;59900;50.788;12.904;2023-08-12T09:35:05;97688.31;;;25.19;56.33
72038;BME280;59900;50.788;12.904;2023-08-12T09:37:31;97682.09;;;25.24;58.23
72038;BME280;59900;50.788;12.904;2023-08-12T09:39:57;97687.34;;;25.34;54.41
72038;BME280;59900;50.788;12.904;2023-08-12T09:42:23;97679.66;;;25.46;54.29
72038;BME280;59900;50.788;12.904;2023-08-12T09:44:48;97671.31;;;25.47;55.92
72038;BME280;59900;50.788;12.904;2023-08-12T09:47:14;97670.25;;;25.48;53.57
72038;BME280;59900;50.788;12.904;2023-08-12T09:49:39;97675.75;;;25.62;53.09
72038;BME280;59900;50.788;12.904;2023-08-12T09:52:06;97668.66;;;25.66;51.40
72038;BME280;59900;50.788;12.904;2023-08-12T09:54:32;97675.31;;;25.74;52.04
72038;BME280;59900;50.788;12.904;2023-08-12T09:56:59;97677.13;;;25.78;50.95
72038;BME280;59900;50.788;12.904;2023-08-12T09:59:30;97673.00;;;25.86;51.70
72038;BME280;59900;50.788;12.904;2023-08-12T10:01:56;97684.34;;;25.83;53.13
72038;BME280;59900;50.788;12.904;2023-08-12T10:04:23;97685.16;;;25.83;54.14
72038;BME280;59900;50.788;12.904;2023-08-12T10:06:51;97671.97;;;25.82;50.95
72038;BME280;59900;50.788;12.904;2023-08-12T10:09:17;97675.97;;;25.84;50.51
72038;BME280;59900;50.788;12.904;2023-08-12T10:11:43;97679.81;;;25.78;55.50
72038;BME280;59900;50.788;12.904;2023-08-12T10:14:10;97669.94;;;25.74;56.00
72038;BME280;59900;50.788;12.904;2023-08-12T10:16:35;97675.34;;;25.69;51.87
72038;BME280;59900;50.788;12.904;2023-08-12T10:19:02;97672.47;;;25.65;51.39
72038;BME280;59900;50.788;12.904;2023-08-12T10:21:28;97664.97;;;25.62;51.66
72038;BME280;59900;50.788;12.904;2023-08-12T10:23:53;97665.47;;;25.64;50.92
72038;BME280;59900;50.788;12.904;2023-08-12T10:26:19;97662.78;;;25.64;50.76
72038;BME280;59900;50.788;12.904;2023-08-12T10:28:44;97675.00;;;25.56;53.49
72038;BME280;59900;50.788;12.904;2023-08-12T10:31:11;97663.19;;;25.52;52.03
72038;BME280;59900;50.788;12.904;2023-08-12T10:33:40;97669.09;;;25.54;49.78
72038;BME280;59900;50.788;12.904;2023-08-12T10:36:07;97665.59;;;25.54;50.01
72038;BME280;59900;50.788;12.904;2023-08-12T10:38:32;97658.22;;;25.65;50.09
72038;BME280;59900;50.788;12.904;2023-08-12T10:41:16;97658.34;;;25.73;51.29
72038;BME280;59900;50.788;12.904;2023-08-12T10:46:23;97669.00;;;25.83;52.96
72038;BME280;59900;50.788;12.904;2023-08-12T10:49:09;97658.78;;;25.99;49.89
72038;BME280;59900;50.788;12.904;2023-08-12T10:51:54;97665.63;;;26.10;54.42
72038;BME280;59900;50.788;12.904;2023-08-12T10:54:25;97665.59;;;26.15;50.75
72038;BME280;59900;50.788;12.904;2023-08-12T11:04:52;97666.22;;;26.44;51.04
72038;BME280;59900;50.788;12.904;2023-08-12T11:07:20;97660.00;;;26.44;47.98
72038;BME280;59900;50.788;12.904;2023-08-12T11:09:51;97658.03;;;26.49;48.89
72038;BME280;59900;50.788;12.904;2023-08-12T11:12:32;97660.09;;;26.39;48.57
72038;BME280;59900;50.788;12.904;2023-08-12T11:14:59;97658.72;;;26.41;51.17
72038;BME280;59900;50.788;12.904;2023-08-12T11:17:36;97657.09;;;26.40;50.47
72038;BME280;59900;50.788;12.904;2023-08-12T11:20:04;97657.44;;;26.52;51.63
72038;BME280;59900;50.788;12.904;2023-08-12T11:22:31;97661.06;;;26.61;51.01
72038;BME280;59900;50.788;12.904;2023-08-12T11:24:57;97658.38;;;26.75;52.17
72038;BME280;59900;50.788;12.904;2023-08-12T11:27:23;97655.00;;;26.69;52.59
72038;BME280;59900;50.788;12.904;2023-08-12T11:29:49;97652.47;;;26.59;50.56
72038;BME280;59900;50.788;12.904;2023-08-12T11:32:16;97650.63;;;26.73;49.16
72038;BME280;59900;50.788;12.904;2023-08-12T11:34:42;97652.16;;;26.80;48.99
72038;BME280;59900;50.788;12.904;2023-08-12T11:37:08;97651.56;;;26.83;48.49
72038;BME280;59900;50.788;12.904;2023-08-12T11:39:34;97638.72;;;26.74;49.72
72038;BME280;59900;50.788;12.904;2023-08-12T11:41:59;97644.00;;;26.66;49.39
72038;BME280;59900;50.788;12.904;2023-08-12T11:44:24;97640.81;;;26.64;46.51
72038;BME280;59900;50.788;12.904;2023-08-12T11:46:50;97650.53;;;26.46;47.59
72038;BME280;59900;50.788;12.904;2023-08-12T11:49:19;97640.22;;;26.35;48.37
72038;BME280;59900;50.788;12.904;2023-08-12T11:51:47;97648.59;;;26.33;47.77
72038;BME280;59900;50.788;12.904;2023-08-12T11:54:14;97635.19;;;26.28;48.73
72038;BME280;59900;50.788;12.904;2023-08-12T11:56:40;97633.53;;;26.32;49.94
72038;BME280;59900;50.788;12.904;2023-08-12T11:59:06;97628.88;;;26.19;49.16
72038;BME280;59900;50.788;12.904;2023-08-12T12:01:32;97628.00;;;26.24;50.02
72038;BME280;59900;50.788;12.904;2023-08-12T12:03:59;97630.78;;;26.18;49.57
72038;BME280;59900;50.788;12.904;2023-08-12T12:06:33;97631.88;;;26.17;49.80
72038;BME280;59900;50.788;12.904;2023-08-12T12:09:05;97621.31;;;26.21;50.54
72038;BME280;59900;50.788;12.904;2023-08-12T12:11:32;97621.09;;;26.17;48.49
72038;BME280;59900;50.788;12.904;2023-08-12T12:14:06;97619.22;;;26.18;51.73
72038;BME280;59900;50.788;12.904;2023-08-12T12:16:45;97613.97;;;26.27;50.34
72038;BME280;59900;50.788;12.904;2023-08-12T12:19:18;97620.34;;;26.31;51.50
72038;BME280;59900;50.788;12.904;2023-08-12T12:21:48;97619.38;;;26.40;50.56
72038;BME280;59900;50.788;12.904;2023-08-12T12:24:14;97614.75;;;26.59;49.93
72038;BME280;59900;50.788;12.904;2023-08-12T12:26:39;97605.38;;;26.70;53.22
72038;BME280;59900;50.788;12.904;2023-08-12T12:29:06;97610.97;;;26.74;51.08
72038;BME280;59900;50.788;12.904;2023-08-12T12:31:35;97609.91;;;26.89;49.27
72038;BME280;59900;50.788;12.904;2023-08-12T12:34:02;97599.63;;;26.91;48.72
72038;BME280;59900;50.788;12.904;2023-08-12T12:36:28;97594.94;;;26.96;48.86
72038;BME280;59900;50.788;12.904;2023-08-12T12:38:54;97597.22;;;27.03;47.84
72038;BME280;59900;50.788;12.904;2023-08-12T12:41:19;97589.72;;;27.27;48.84
72038;BME280;59900;50.788;12.904;2023-08-12T12:43:44;97587.09;;;27.49;47.05
72038;BME280;59900;50.788;12.904;2023-08-12T12:46:10;97584.41;;;27.85;46.23
72038;BME280;59900;50.788;12.904;2023-08-12T12:48:35;97578.13;;;28.12;44.83
72038;BME280;59900;50.788;12.904;2023-08-12T12:51:01;97578.00;;;28.48;44.38
72038;BME280;59900;50.788;12.904;2023-08-12T12:53:26;97564.50;;;28.78;42.73
72038;BME280;59900;50.788;12.904;2023-08-12T12:55:51;97567.81;;;29.06;43.33
72038;BME280;59900;50.788;12.904;2023-08-12T12:58:17;97568.19;;;29.39;40.80